createdAt,value
2018-12-04T05:00:30.078Z,973.52
2018-12-04T05:01:30.029Z,973.61
2018-12-04T05:02:30.010Z,973.76
2018-12-04T05:03:30.000Z,973.81
2018-12-04T05:04:30.017Z,973.92
2018-12-04T05:05:29.978Z,973.92
2018-12-04T05:06:29.967Z,973.95
2018-12-04T05:07:29.957Z,974.06
2018-12-04T05:08:29.944Z,974.11
2018-12-04T05:09:29.943Z,974.14
2018-12-04T05:10:29.925Z,974.16
2018-12-04T05:11:29.915Z,974.25
2018-12-04T05:12:29.904Z,974.31
2018-12-04T05:13:29.888Z,974.37
2018-12-04T05:14:29.887Z,974.42
2018-12-04T05:15:29.871Z,974.53
2018-12-04T05:16:29.858Z,974.57
2018-12-04T05:17:29.845Z,974.56
2018-12-04T05:18:29.834Z,974.66
2018-12-04T05:19:29.834Z,974.70
2018-12-04T05:20:29.816Z,974.83
2018-12-04T05:21:29.800Z,974.88
2018-12-04T05:22:29.793Z,974.88
2018-12-04T05:23:29.777Z,974.91
2018-12-04T05:24:29.781Z,974.96
2018-12-04T05:25:29.756Z,975.03
2018-12-04T05:26:29.750Z,974.96
2018-12-04T05:27:29.732Z,975.03
2018-12-04T05:28:29.721Z,975.09
2018-12-04T05:29:29.737Z,975.07
2018-12-04T05:30:29.699Z,975.14
2018-12-04T05:31:29.689Z,975.21
2018-12-04T05:32:29.678Z,975.22
2018-12-04T05:33:29.668Z,975.23
2018-12-04T05:34:29.665Z,975.24
2018-12-04T05:35:29.642Z,975.18
2018-12-04T05:36:29.635Z,975.27
2018-12-04T05:37:29.619Z,975.25
2018-12-04T05:38:29.627Z,975.31
2018-12-04T05:39:29.610Z,975.34
2018-12-04T05:40:29.587Z,975.35
2018-12-04T05:41:29.575Z,975.39
2018-12-04T05:42:29.564Z,975.42
2018-12-04T05:43:29.551Z,975.41
2018-12-04T05:44:29.556Z,975.42
2018-12-04T05:45:29.529Z,975.44
2018-12-04T05:46:29.523Z,975.44
2018-12-04T05:47:29.515Z,975.52
2018-12-04T05:48:29.499Z,975.46
2018-12-04T05:49:29.516Z,975.52
2018-12-04T05:50:29.490Z,975.52
2018-12-04T05:51:29.461Z,975.55
2018-12-04T05:52:29.450Z,975.59
2018-12-04T05:53:29.439Z,975.58
2018-12-04T05:54:29.443Z,975.67
2018-12-04T05:55:29.424Z,975.69
2018-12-04T05:56:29.408Z,975.71
2018-12-04T05:57:29.399Z,975.73
2018-12-04T05:58:29.385Z,975.80
2018-12-04T05:59:29.411Z,975.76
2018-12-04T06:00:29.355Z,975.79
2018-12-04T06:01:29.353Z,975.83
2018-12-04T06:02:29.360Z,975.83
2018-12-04T06:03:29.333Z,975.90
2018-12-04T06:04:29.323Z,975.93
2018-12-04T06:05:29.332Z,975.95
2018-12-04T06:06:29.297Z,975.91
2018-12-04T06:07:29.289Z,975.98
2018-12-04T06:08:29.274Z,976.00
2018-12-04T06:09:29.324Z,975.96
2018-12-04T06:10:29.270Z,975.96
2018-12-04T06:11:29.244Z,976.02
2018-12-04T06:12:29.235Z,976.04
2018-12-04T06:13:29.225Z,976.11
2018-12-04T06:14:29.210Z,976.09
2018-12-04T06:15:29.209Z,976.12
2018-12-04T06:16:29.189Z,976.16
2018-12-04T06:17:29.176Z,976.15
2018-12-04T06:18:29.163Z,976.14
2018-12-04T06:19:29.152Z,976.19
2018-12-04T06:20:29.159Z,976.21
2018-12-04T06:21:29.132Z,976.28
2018-12-04T06:22:29.119Z,976.19
2018-12-04T06:23:29.107Z,976.27
2018-12-04T06:24:29.095Z,976.21
2018-12-04T06:25:29.105Z,976.30
2018-12-04T06:26:29.091Z,976.31
2018-12-04T06:27:29.067Z,976.29
2018-12-04T06:28:29.054Z,976.32
2018-12-04T06:29:29.049Z,976.32
2018-12-04T06:30:29.047Z,976.38
2018-12-04T06:31:29.020Z,976.35
2018-12-04T06:32:29.002Z,976.42
2018-12-04T06:33:28.998Z,976.46
2018-12-04T06:34:28.997Z,976.45
2018-12-04T06:35:28.991Z,976.51
2018-12-04T06:36:28.967Z,976.55
2018-12-04T06:37:28.953Z,976.55
2018-12-04T06:38:28.946Z,976.62
2018-12-04T06:39:28.930Z,976.61
2018-12-04T06:40:28.931Z,976.68
2018-12-04T06:41:28.909Z,976.69
2018-12-04T06:42:28.899Z,976.70
2018-12-04T06:43:28.885Z,976.72
2018-12-04T06:44:28.878Z,976.78
2018-12-04T06:45:28.878Z,976.81
2018-12-04T06:46:28.856Z,976.81
2018-12-04T06:47:28.846Z,976.87
2018-12-04T06:48:28.832Z,976.88
2018-12-04T06:49:28.823Z,976.94
2018-12-04T06:50:28.826Z,976.94
2018-12-04T06:51:28.799Z,976.96
2018-12-04T06:52:28.791Z,976.99
2018-12-04T06:53:28.777Z,977.03
2018-12-04T06:54:28.770Z,977.08
2018-12-04T06:55:28.798Z,977.14
2018-12-04T06:56:28.742Z,977.13
2018-12-04T06:57:28.737Z,977.19
2018-12-04T06:58:28.722Z,977.17
2018-12-04T06:59:28.711Z,977.20
2018-12-04T07:00:28.713Z,977.27
2018-12-04T07:01:28.690Z,977.35
2018-12-04T07:02:28.685Z,977.33
2018-12-04T07:03:28.668Z,977.38
2018-12-04T07:04:28.658Z,977.40
2018-12-04T07:05:28.657Z,977.38
2018-12-04T07:06:28.633Z,977.44
2018-12-04T07:07:28.624Z,977.46
2018-12-04T07:08:28.611Z,977.51
2018-12-04T07:09:28.602Z,977.57
2018-12-04T07:10:28.601Z,977.65
2018-12-04T07:11:28.580Z,977.65
2018-12-04T07:12:28.563Z,977.67
2018-12-04T07:13:28.555Z,977.69
2018-12-04T07:14:28.545Z,977.70
2018-12-04T07:15:28.554Z,977.80
2018-12-04T07:16:28.522Z,977.77
2018-12-04T07:17:28.513Z,977.81
2018-12-04T07:18:28.498Z,977.83
2018-12-04T07:19:28.487Z,977.88
2018-12-04T07:20:28.490Z,977.87
2018-12-04T07:21:28.466Z,977.87
2018-12-04T07:22:28.458Z,977.89
2018-12-04T07:23:28.452Z,977.97
2018-12-04T07:24:28.436Z,977.97
2018-12-04T07:25:28.439Z,978.02
2018-12-04T07:26:28.413Z,978.05
2018-12-04T07:27:28.401Z,978.08
2018-12-04T07:28:28.389Z,978.11
2018-12-04T07:29:28.378Z,978.11
2018-12-04T07:30:28.386Z,978.12
2018-12-04T07:31:28.357Z,978.18
2018-12-04T07:32:28.344Z,978.20
2018-12-04T07:33:28.334Z,978.20
2018-12-04T07:34:28.327Z,978.25
2018-12-04T07:35:28.326Z,978.22
2018-12-04T07:36:28.293Z,978.28
2018-12-04T07:37:28.292Z,978.28
2018-12-04T07:38:28.283Z,978.28
2018-12-04T07:39:28.287Z,978.31
2018-12-04T07:40:28.272Z,978.32
2018-12-04T07:41:28.243Z,978.39
2018-12-04T07:42:28.231Z,978.38
2018-12-04T07:43:28.220Z,978.45
2018-12-04T07:44:28.212Z,978.48
2018-12-04T07:45:28.215Z,978.54
2018-12-04T07:46:28.196Z,978.58
2018-12-04T07:47:28.183Z,978.62
2018-12-04T07:48:28.169Z,978.61
2018-12-04T07:49:28.153Z,978.68
2018-12-04T07:50:28.167Z,978.69
2018-12-04T07:51:28.134Z,978.70
2018-12-04T07:52:28.116Z,978.75
2018-12-04T07:53:28.113Z,978.78
2018-12-04T07:54:28.104Z,978.73
2018-12-04T07:55:28.098Z,978.79
2018-12-04T07:56:28.083Z,978.76
2018-12-04T07:57:28.066Z,978.79
2018-12-04T07:58:28.056Z,978.90
2018-12-04T07:59:28.049Z,978.93
2018-12-04T08:00:28.050Z,978.92
2018-12-04T08:01:28.025Z,978.96
2018-12-04T08:02:28.015Z,978.96
2018-12-04T08:03:28.003Z,979.00
2018-12-04T08:04:27.995Z,979.02
2018-12-04T08:05:28.004Z,979.10
2018-12-04T08:06:27.969Z,979.12
2018-12-04T08:07:27.957Z,979.14
2018-12-04T08:08:27.950Z,979.23
2018-12-04T08:09:27.935Z,979.21
2018-12-04T08:10:27.915Z,979.19
2018-12-04T08:11:27.924Z,979.23
2018-12-04T08:12:27.905Z,979.28
2018-12-04T08:13:27.889Z,979.25
2018-12-04T08:14:27.881Z,979.26
2018-12-04T08:15:27.868Z,979.30
2018-12-04T08:16:27.929Z,979.33
2018-12-04T08:17:27.844Z,979.36
2018-12-04T08:18:27.838Z,979.41
2018-12-04T08:19:29.793Z,979.35
2018-12-04T08:20:27.813Z,979.43
2018-12-04T08:21:27.815Z,979.44
2018-12-04T08:22:27.790Z,979.52
2018-12-04T08:23:27.794Z,979.54
2018-12-04T08:24:27.771Z,979.60
2018-12-04T08:25:27.762Z,979.69
2018-12-04T08:26:27.762Z,979.65
2018-12-04T08:27:27.728Z,979.66
2018-12-04T08:28:27.734Z,979.70
2018-12-04T08:29:27.713Z,979.69
2018-12-04T08:30:27.703Z,979.70
2018-12-04T08:31:27.700Z,979.70
2018-12-04T08:32:27.684Z,979.73
2018-12-04T08:33:27.667Z,979.73
2018-12-04T08:34:27.657Z,979.74
2018-12-04T08:35:27.633Z,979.80
2018-12-04T08:36:27.639Z,979.80
2018-12-04T08:37:27.623Z,979.85
2018-12-04T08:38:27.619Z,979.92
2018-12-04T08:39:27.592Z,979.90
2018-12-04T08:40:27.589Z,979.93
2018-12-04T08:41:27.603Z,979.94
2018-12-04T08:42:27.555Z,980.00
2018-12-04T08:43:27.562Z,980.04
2018-12-04T08:44:27.549Z,980.04
2018-12-04T08:45:27.529Z,980.09
2018-12-04T08:46:29.546Z,980.09
2018-12-04T08:47:27.502Z,980.08
2018-12-04T08:48:27.504Z,980.05
2018-12-04T08:49:27.480Z,980.13
2018-12-04T08:50:27.480Z,980.11
2018-12-04T08:51:27.489Z,980.14
2018-12-04T08:52:27.452Z,980.15
2018-12-04T08:53:27.451Z,980.18
2018-12-04T08:54:27.435Z,980.20
2018-12-04T08:55:27.424Z,980.21
2018-12-04T08:56:27.428Z,980.23
2018-12-04T08:57:27.404Z,980.23
2018-12-04T08:58:27.395Z,980.26
2018-12-04T08:59:27.382Z,980.30
2018-12-04T09:00:27.369Z,980.29
2018-12-04T09:01:27.369Z,980.36
2018-12-04T09:02:27.353Z,980.36
2018-12-04T09:03:27.337Z,980.40
2018-12-04T09:04:27.337Z,980.45
2018-12-04T09:05:27.314Z,980.47
2018-12-04T09:06:27.317Z,980.46
2018-12-04T09:07:29.263Z,980.52
2018-12-04T09:08:27.281Z,980.56
2018-12-04T09:09:27.278Z,980.51
2018-12-04T09:10:27.264Z,980.57
2018-12-04T09:11:27.251Z,980.61
2018-12-04T09:12:27.229Z,980.69
2018-12-04T09:13:27.224Z,980.67
2018-12-04T09:14:29.218Z,980.71
2018-12-04T09:15:27.194Z,980.74
2018-12-04T09:16:27.200Z,980.84
2018-12-04T09:17:27.182Z,980.86
2018-12-04T09:18:27.183Z,980.95
2018-12-04T09:19:27.183Z,980.96
2018-12-04T09:20:27.201Z,981.02
2018-12-04T09:21:27.151Z,981.03
2018-12-04T09:22:27.179Z,981.09
2018-12-04T09:23:27.131Z,981.13
2018-12-04T09:24:30.663Z,981.15
2018-12-04T09:25:27.093Z,981.21
2018-12-04T09:26:27.142Z,981.19
2018-12-04T09:27:27.101Z,981.12
2018-12-04T09:28:27.108Z,981.22
2018-12-04T09:29:27.053Z,981.20
2018-12-04T09:30:27.037Z,981.21
2018-12-04T09:31:27.042Z,981.28
2018-12-04T09:32:27.015Z,981.29
2018-12-04T09:33:27.004Z,981.32
2018-12-04T09:34:29.785Z,981.29
2018-12-04T09:35:26.981Z,981.30
2018-12-04T09:36:26.995Z,981.36
2018-12-04T09:37:26.967Z,981.39
2018-12-04T09:38:26.944Z,981.38
2018-12-04T09:39:26.932Z,981.36
2018-12-04T09:40:26.930Z,981.40
2018-12-04T09:41:26.931Z,981.43
2018-12-04T09:42:26.903Z,981.42
2018-12-04T09:43:26.891Z,981.44
2018-12-04T09:44:26.881Z,981.45
2018-12-04T09:45:26.860Z,981.46
2018-12-04T09:46:26.872Z,981.47
2018-12-04T09:47:26.855Z,981.50
2018-12-04T09:48:26.834Z,981.51
2018-12-04T09:49:26.824Z,981.52
2018-12-04T09:50:26.818Z,981.57
2018-12-04T09:51:26.816Z,981.54
2018-12-04T09:52:26.795Z,981.56
2018-12-04T09:53:26.785Z,981.55
2018-12-04T09:54:26.762Z,981.56
2018-12-04T09:55:26.758Z,981.53
2018-12-04T09:56:26.760Z,981.55
2018-12-04T09:57:26.736Z,981.60
2018-12-04T09:58:26.725Z,981.57
2018-12-04T09:59:26.719Z,981.64
2018-12-04T10:00:26.715Z,981.64
2018-12-04T10:01:26.703Z,981.65
2018-12-04T10:02:26.686Z,981.67
2018-12-04T10:03:26.669Z,981.72
2018-12-04T10:04:26.660Z,981.72
2018-12-04T10:05:28.756Z,981.71
2018-12-04T10:06:26.646Z,981.69
2018-12-04T10:07:26.625Z,981.68
2018-12-04T10:08:26.615Z,981.67
2018-12-04T10:09:26.604Z,981.68
2018-12-04T10:10:28.660Z,981.73
2018-12-04T10:11:26.601Z,981.73
2018-12-04T10:12:26.568Z,981.77
2018-12-04T10:13:26.556Z,981.72
2018-12-04T10:14:26.544Z,981.74
2018-12-04T10:15:26.543Z,981.75
2018-12-04T10:16:26.519Z,981.78
2018-12-04T10:17:26.527Z,981.76
2018-12-04T10:18:26.539Z,981.74
2018-12-04T10:19:27.650Z,981.73
2018-12-04T10:20:26.484Z,981.78
2018-12-04T10:21:26.475Z,981.73
2018-12-04T10:22:26.475Z,981.77
2018-12-04T10:23:26.447Z,981.82
2018-12-04T10:24:26.435Z,981.85
2018-12-04T10:25:26.438Z,981.86
2018-12-04T10:26:26.412Z,981.89
2018-12-04T10:27:26.413Z,981.85
2018-12-04T10:28:26.390Z,981.84
2018-12-04T10:29:26.390Z,981.89
2018-12-04T10:30:26.408Z,981.92
2018-12-04T10:31:26.359Z,981.91
2018-12-04T10:32:26.359Z,981.95
2018-12-04T10:33:26.336Z,981.93
2018-12-04T10:34:26.322Z,981.93
2018-12-04T10:35:26.315Z,981.91
2018-12-04T10:36:26.299Z,981.98
2018-12-04T10:37:26.302Z,981.91
2018-12-04T10:38:26.282Z,981.98
2018-12-04T10:39:26.275Z,981.99
2018-12-04T10:40:26.263Z,981.98
2018-12-04T10:41:26.237Z,982.00
2018-12-04T10:42:26.249Z,982.00
2018-12-04T10:43:26.218Z,982.05
2018-12-04T10:44:26.213Z,982.03
2018-12-04T10:45:26.203Z,982.09
2018-12-04T10:46:26.228Z,982.09
2018-12-04T10:47:26.191Z,982.09
2018-12-04T10:48:28.143Z,982.10
2018-12-04T10:49:26.170Z,982.12
2018-12-04T10:50:28.262Z,982.15
2018-12-04T10:51:26.137Z,982.14
2018-12-04T10:52:28.175Z,982.12
2018-12-04T10:53:28.127Z,982.15
2018-12-04T10:54:26.160Z,982.14
2018-12-04T10:55:26.270Z,982.11
2018-12-04T10:56:26.161Z,982.12
2018-12-04T10:57:26.075Z,982.10
2018-12-04T10:58:28.066Z,982.12
2018-12-04T10:59:26.046Z,982.08
2018-12-04T11:00:26.043Z,982.16
2018-12-04T11:01:26.029Z,982.10
2018-12-04T11:02:26.064Z,982.10
2018-12-04T11:03:28.151Z,982.15
2018-12-04T11:04:27.973Z,982.14
2018-12-04T11:05:27.951Z,982.24
2018-12-04T11:06:25.970Z,982.24
2018-12-04T11:07:25.975Z,982.30
2018-12-04T11:08:25.946Z,982.28
2018-12-04T11:09:25.970Z,982.30
2018-12-04T11:10:25.921Z,982.35
2018-12-04T11:11:25.913Z,982.35
2018-12-04T11:12:25.948Z,982.40
2018-12-04T11:13:25.887Z,982.35
2018-12-04T11:14:25.880Z,982.38
2018-12-04T11:15:25.868Z,982.35
2018-12-04T11:16:25.852Z,982.34
2018-12-04T11:17:25.863Z,982.39
2018-12-04T11:18:25.835Z,982.42
2018-12-04T11:19:25.839Z,982.42
2018-12-04T11:20:25.812Z,982.45
2018-12-04T11:21:25.804Z,982.43
2018-12-04T11:22:25.793Z,982.47
2018-12-04T11:23:25.770Z,982.50
2018-12-04T11:24:25.779Z,982.55
2018-12-04T11:25:25.759Z,982.55
2018-12-04T11:26:25.756Z,982.58
2018-12-04T11:27:25.751Z,982.60
2018-12-04T11:28:25.728Z,982.61
2018-12-04T11:29:25.715Z,982.67
2018-12-04T11:30:25.696Z,982.69
2018-12-04T11:31:25.692Z,982.68
2018-12-04T11:32:25.698Z,982.70
2018-12-04T11:33:25.674Z,982.71
2018-12-04T11:34:25.673Z,982.76
2018-12-04T11:35:25.647Z,982.73
2018-12-04T11:36:25.635Z,982.77
2018-12-04T11:37:25.628Z,982.79
2018-12-04T11:38:25.613Z,982.81
2018-12-04T11:39:25.595Z,982.82
2018-12-04T11:40:25.591Z,982.84
2018-12-04T11:41:25.583Z,982.94
2018-12-04T11:42:25.584Z,982.98
2018-12-04T11:43:25.557Z,983.01
2018-12-04T11:44:25.557Z,983.00
2018-12-04T11:45:25.534Z,982.99
2018-12-04T11:46:25.528Z,982.94
2018-12-04T11:47:25.511Z,982.96
2018-12-04T11:48:25.500Z,982.93
2018-12-04T11:49:25.490Z,982.98
2018-12-04T11:50:25.478Z,983.03
2018-12-04T11:51:25.474Z,983.03
2018-12-04T11:52:25.483Z,983.01
2018-12-04T11:53:25.449Z,983.07
2018-12-04T11:54:25.437Z,983.04
2018-12-04T11:55:25.425Z,983.05
2018-12-04T11:56:25.414Z,983.00
2018-12-04T11:57:25.428Z,983.02
2018-12-04T11:58:25.393Z,983.02
2018-12-04T11:59:25.382Z,983.01
2018-12-04T12:00:25.381Z,983.02
2018-12-04T12:01:25.359Z,983.00
2018-12-04T12:02:25.359Z,983.03
2018-12-04T12:03:25.338Z,983.03
2018-12-04T12:04:25.324Z,983.05
2018-12-04T12:05:25.313Z,983.09
2018-12-04T12:06:25.302Z,983.12
2018-12-04T12:07:25.305Z,983.15
2018-12-04T12:08:25.280Z,983.16
2018-12-04T12:09:25.278Z,983.18
2018-12-04T12:10:25.257Z,983.22
2018-12-04T12:11:25.237Z,983.11
2018-12-04T12:12:25.258Z,983.10
2018-12-04T12:13:25.223Z,983.11
2018-12-04T12:14:25.211Z,983.14
2018-12-04T12:15:25.196Z,983.12
2018-12-04T12:16:25.188Z,983.21
2018-12-04T12:17:25.207Z,983.28
2018-12-04T12:18:25.172Z,983.26
2018-12-04T12:19:25.155Z,983.26
2018-12-04T12:20:25.140Z,983.26
2018-12-04T12:21:25.148Z,983.29
2018-12-04T12:22:25.126Z,983.29
2018-12-04T12:23:25.120Z,983.40
2018-12-04T12:24:25.095Z,983.33
2018-12-04T12:25:25.091Z,983.39
2018-12-04T12:26:25.072Z,983.38
2018-12-04T12:27:25.073Z,983.38
2018-12-04T12:28:25.070Z,983.42
2018-12-04T12:29:25.058Z,983.38
2018-12-04T12:30:25.031Z,983.45
2018-12-04T12:31:25.024Z,983.46
2018-12-04T12:32:25.021Z,983.52
2018-12-04T12:33:25.018Z,983.48
2018-12-04T12:34:24.990Z,983.49
2018-12-04T12:35:24.979Z,983.51
2018-12-04T12:36:24.969Z,983.48
2018-12-04T12:37:24.946Z,983.52
2018-12-04T12:38:24.963Z,983.49
2018-12-04T12:39:24.937Z,983.51
2018-12-04T12:40:24.940Z,983.56
2018-12-04T12:41:24.909Z,983.57
2018-12-04T12:42:24.900Z,983.64
2018-12-04T12:43:24.939Z,983.57
2018-12-04T12:44:24.883Z,983.59
2018-12-04T12:45:24.872Z,983.56
2018-12-04T12:46:24.860Z,983.57
2018-12-04T12:47:24.849Z,983.62
2018-12-04T12:48:24.849Z,983.63
2018-12-04T12:49:24.829Z,983.67
2018-12-04T12:50:24.815Z,983.70
2018-12-04T12:51:24.808Z,983.76
2018-12-04T12:52:24.783Z,983.79
2018-12-04T12:53:24.788Z,983.78
2018-12-04T12:54:24.772Z,983.79
2018-12-04T12:55:24.759Z,983.81
2018-12-04T12:56:24.754Z,983.87
2018-12-04T12:57:24.739Z,983.86
2018-12-04T12:58:24.741Z,983.88
2018-12-04T12:59:24.714Z,983.83
2018-12-04T13:00:24.703Z,983.82
2018-12-04T13:01:24.694Z,983.88
2018-12-04T13:02:24.671Z,983.95
2018-12-04T13:03:24.681Z,983.97
2018-12-04T13:04:24.660Z,984.01
2018-12-04T13:05:24.645Z,984.01
2018-12-04T13:06:24.637Z,983.99
2018-12-04T13:07:24.626Z,984.04
2018-12-04T13:08:24.627Z,983.98
2018-12-04T13:09:24.589Z,984.06
2018-12-04T13:10:24.581Z,984.04
2018-12-04T13:11:24.587Z,984.09
2018-12-04T13:12:24.569Z,984.09
2018-12-04T13:13:24.569Z,984.15
2018-12-04T13:14:24.554Z,984.15
2018-12-04T13:15:24.536Z,984.16
2018-12-04T13:16:24.533Z,984.28
2018-12-04T13:17:24.517Z,984.25
2018-12-04T13:18:24.514Z,984.23
2018-12-04T13:19:24.493Z,984.21
2018-12-04T13:20:24.481Z,984.29
2018-12-04T13:21:24.468Z,984.29
2018-12-04T13:22:24.468Z,984.30
2018-12-04T13:23:24.458Z,984.33
2018-12-04T13:24:24.451Z,984.32
2018-12-04T13:25:24.425Z,984.36
2018-12-04T13:26:24.417Z,984.33
2018-12-04T13:27:24.414Z,984.30
2018-12-04T13:28:24.421Z,984.30
2018-12-04T13:29:24.383Z,984.30
2018-12-04T13:30:24.376Z,984.35
2018-12-04T13:31:24.901Z,984.36
2018-12-04T13:32:24.367Z,984.33
2018-12-04T13:33:24.354Z,984.36
2018-12-04T13:34:24.355Z,984.38
2018-12-04T13:35:24.317Z,984.42
2018-12-04T13:36:24.303Z,984.42
2018-12-04T13:37:24.280Z,984.48
2018-12-04T13:38:24.306Z,984.45
2018-12-04T13:39:24.269Z,984.51
2018-12-04T13:40:24.272Z,984.51
2018-12-04T13:41:24.253Z,984.56
2018-12-04T13:42:24.239Z,984.57
2018-12-04T13:43:24.236Z,984.62
2018-12-04T13:44:24.234Z,984.63
2018-12-04T13:45:24.197Z,984.64
2018-12-04T13:46:24.199Z,984.64
2018-12-04T13:47:24.183Z,984.65
2018-12-04T13:48:24.186Z,984.66
2018-12-04T13:49:24.170Z,984.66
2018-12-04T13:50:24.151Z,984.66
2018-12-04T13:51:24.140Z,984.71
2018-12-04T13:52:24.140Z,984.67
2018-12-04T13:53:24.136Z,984.65
2018-12-04T13:54:24.092Z,984.70
2018-12-04T13:55:24.094Z,984.59
2018-12-04T13:56:24.086Z,984.73
2018-12-04T13:57:24.058Z,984.68
2018-12-04T13:58:24.074Z,984.70
2018-12-04T13:59:24.059Z,984.75
2018-12-04T14:00:24.058Z,984.83
2018-12-04T14:01:24.034Z,984.88
2018-12-04T14:02:24.018Z,984.90
2018-12-04T14:03:24.020Z,984.92
2018-12-04T14:04:23.987Z,984.97
2018-12-04T14:05:23.975Z,984.93
2018-12-04T14:06:23.974Z,984.94
2018-12-04T14:07:23.966Z,984.89
2018-12-04T14:08:23.956Z,984.91
2018-12-04T14:09:26.156Z,984.90
2018-12-04T14:10:23.938Z,984.91
2018-12-04T14:11:23.912Z,984.96
2018-12-04T14:12:23.906Z,984.97
2018-12-04T14:13:23.937Z,984.93
2018-12-04T14:14:23.878Z,984.94
2018-12-04T14:15:23.881Z,984.93
2018-12-04T14:16:23.875Z,984.94
2018-12-04T14:17:23.889Z,985.00
2018-12-04T14:18:23.851Z,985.03
2018-12-04T14:19:23.834Z,985.03
2018-12-04T14:20:23.815Z,985.11
2018-12-04T14:21:23.822Z,985.07
2018-12-04T14:22:23.792Z,985.12
2018-12-04T14:23:23.802Z,985.15
2018-12-04T14:24:23.778Z,985.15
2018-12-04T14:25:23.759Z,985.16
2018-12-04T14:26:23.747Z,985.12
2018-12-04T14:27:23.769Z,985.18
2018-12-04T14:28:23.730Z,985.26
2018-12-04T14:29:23.731Z,985.26
2018-12-04T14:30:23.729Z,985.30
2018-12-04T14:31:23.696Z,985.29
2018-12-04T14:32:23.674Z,985.29
2018-12-04T14:33:23.677Z,985.34
2018-12-04T14:34:23.676Z,985.35
2018-12-04T14:35:23.654Z,985.41
2018-12-04T14:36:23.659Z,985.40
2018-12-04T14:37:23.631Z,985.47
2018-12-04T14:38:24.584Z,985.45
2018-12-04T14:39:23.650Z,985.41
2018-12-04T14:40:23.612Z,985.40
2018-12-04T14:41:23.587Z,985.45
2018-12-04T14:42:23.599Z,985.48
2018-12-04T14:43:23.559Z,985.46
2018-12-04T14:44:25.433Z,985.46
2018-12-04T14:45:23.540Z,985.53
2018-12-04T14:46:23.525Z,985.52
2018-12-04T14:47:23.519Z,985.52
2018-12-04T14:48:23.519Z,985.49
2018-12-04T14:49:23.528Z,985.48
2018-12-04T14:50:23.480Z,985.49
2018-12-04T14:51:23.469Z,985.55
2018-12-04T14:52:23.490Z,985.53
2018-12-04T14:53:23.465Z,985.51
2018-12-04T14:54:23.450Z,985.61
2018-12-04T14:55:23.424Z,985.59
2018-12-04T14:56:23.414Z,985.57
2018-12-04T14:57:23.398Z,985.60
2018-12-04T14:58:23.411Z,985.66
2018-12-04T14:59:23.396Z,985.68
2018-12-04T15:00:23.392Z,985.73
2018-12-04T15:01:23.354Z,985.69
2018-12-04T15:02:23.346Z,985.73
2018-12-04T15:03:23.363Z,985.78
2018-12-04T15:04:23.330Z,985.73
2018-12-04T15:05:23.319Z,985.69
2018-12-04T15:06:23.320Z,985.76
2018-12-04T15:07:23.288Z,985.76
2018-12-04T15:08:23.274Z,985.81
2018-12-04T15:09:23.300Z,985.83
2018-12-04T15:10:23.286Z,985.90
2018-12-04T15:11:23.239Z,985.96
2018-12-04T15:12:23.233Z,985.98
2018-12-04T15:13:23.221Z,985.98
2018-12-04T15:14:23.232Z,985.97
2018-12-04T15:15:24.770Z,985.97
2018-12-04T15:16:23.207Z,985.98
2018-12-04T15:17:23.193Z,986.02
2018-12-04T15:18:23.176Z,986.02
2018-12-04T15:19:23.194Z,986.03
2018-12-04T15:20:23.151Z,986.08
2018-12-04T15:21:23.242Z,986.14
2018-12-04T15:22:23.120Z,986.15
2018-12-04T15:23:23.153Z,986.16
2018-12-04T15:24:23.109Z,986.24
2018-12-04T15:25:23.117Z,986.24
2018-12-04T15:26:23.094Z,986.25
2018-12-04T15:27:23.088Z,986.28
2018-12-04T15:28:23.053Z,986.30
2018-12-04T15:29:23.077Z,986.43
2018-12-04T15:30:23.029Z,986.42
2018-12-04T15:31:23.028Z,986.44
2018-12-04T15:32:23.006Z,986.44
2018-12-04T15:33:22.999Z,986.50
2018-12-04T15:34:23.015Z,986.52
2018-12-04T15:35:22.972Z,986.56
2018-12-04T15:36:23.003Z,986.59
2018-12-04T15:37:22.980Z,986.61
2018-12-04T15:38:22.972Z,986.61
2018-12-04T15:39:22.944Z,986.64
2018-12-04T15:40:22.927Z,986.67
2018-12-04T15:41:22.905Z,986.71
2018-12-04T15:42:23.012Z,986.68
2018-12-04T15:43:22.987Z,986.70
2018-12-04T15:44:22.918Z,986.73
2018-12-04T15:45:22.856Z,986.76
2018-12-04T15:46:22.869Z,986.82
2018-12-04T15:47:22.854Z,986.82
2018-12-04T15:48:22.827Z,986.82
2018-12-04T15:49:22.861Z,986.85
2018-12-04T15:50:22.803Z,986.81
2018-12-04T15:51:22.793Z,986.89
2018-12-04T15:52:22.783Z,986.90
2018-12-04T15:53:22.810Z,986.91
2018-12-04T15:54:22.766Z,986.91
2018-12-04T15:55:22.760Z,986.90
2018-12-04T15:56:22.743Z,986.94
2018-12-04T15:57:24.723Z,986.90
2018-12-04T15:58:22.730Z,986.93
2018-12-04T15:59:22.717Z,986.98
2018-12-04T16:00:22.696Z,986.96
2018-12-04T16:01:22.685Z,986.98
2018-12-04T16:02:22.673Z,986.97
2018-12-04T16:03:22.652Z,987.00
2018-12-04T16:04:22.670Z,987.01
2018-12-04T16:05:22.643Z,987.07
2018-12-04T16:06:22.628Z,987.03
2018-12-04T16:07:22.617Z,987.08
2018-12-04T16:08:22.600Z,987.11
2018-12-04T16:09:22.617Z,987.10
2018-12-04T16:10:22.583Z,987.14
2018-12-04T16:11:22.572Z,987.15
2018-12-04T16:12:22.559Z,987.13
2018-12-04T16:13:22.548Z,987.16
2018-12-04T16:14:22.554Z,987.20
2018-12-04T16:15:22.521Z,987.23
2018-12-04T16:16:22.518Z,987.24
2018-12-04T16:17:22.500Z,987.25
2018-12-04T16:18:22.487Z,987.34
2018-12-04T16:19:22.493Z,987.34
2018-12-04T16:20:22.473Z,987.38
2018-12-04T16:21:22.458Z,987.37
2018-12-04T16:22:22.443Z,987.39
2018-12-04T16:23:22.431Z,987.40
2018-12-04T16:24:22.436Z,987.40
2018-12-04T16:25:22.409Z,987.44
2018-12-04T16:26:22.414Z,987.40
2018-12-04T16:27:22.388Z,987.44
2018-12-04T16:28:22.375Z,987.49
2018-12-04T16:29:22.406Z,987.49
2018-12-04T16:30:22.371Z,987.51
2018-12-04T16:31:22.333Z,987.52
2018-12-04T16:32:22.329Z,987.51
2018-12-04T16:33:22.310Z,987.58
2018-12-04T16:34:22.306Z,987.58
2018-12-04T16:35:22.315Z,987.56
2018-12-04T16:36:22.286Z,987.61
2018-12-04T16:37:22.274Z,987.66
2018-12-04T16:38:22.263Z,987.65
2018-12-04T16:39:22.251Z,987.63
2018-12-04T16:40:22.243Z,987.67
2018-12-04T16:41:22.230Z,987.70
2018-12-04T16:42:22.215Z,987.67
2018-12-04T16:43:22.208Z,987.67
2018-12-04T16:44:22.196Z,987.73
2018-12-04T16:45:22.196Z,987.75
2018-12-04T16:46:22.172Z,987.72
2018-12-04T16:47:22.161Z,987.72
2018-12-04T16:48:22.149Z,987.73
2018-12-04T16:49:22.146Z,987.73
2018-12-04T16:50:22.138Z,987.75
2018-12-04T16:51:22.118Z,987.78
2018-12-04T16:52:22.104Z,987.79
2018-12-04T16:53:22.093Z,987.79
2018-12-04T16:54:22.086Z,987.81
2018-12-04T16:55:22.105Z,987.83
2018-12-04T16:56:22.059Z,987.78
2018-12-04T16:57:22.040Z,987.80
2018-12-04T16:58:22.032Z,987.81
2018-12-04T16:59:24.032Z,987.87
2018-12-04T17:00:22.035Z,987.92
2018-12-04T17:01:21.997Z,987.85
2018-12-04T17:02:21.979Z,987.87
2018-12-04T17:03:21.981Z,987.84
2018-12-04T17:04:22.052Z,987.92
2018-12-04T17:05:21.970Z,987.89
2018-12-04T17:06:21.945Z,987.92
2018-12-04T17:07:21.931Z,988.04
2018-12-04T17:08:21.922Z,988.02
2018-12-04T17:09:21.907Z,988.00
2018-12-04T17:10:22.545Z,988.00
2018-12-04T17:11:21.886Z,987.99
2018-12-04T17:12:21.879Z,987.98
2018-12-04T17:13:21.873Z,987.98
2018-12-04T17:14:21.854Z,987.99
2018-12-04T17:15:21.852Z,988.04
2018-12-04T17:16:21.815Z,988.01
2018-12-04T17:17:21.819Z,988.04
2018-12-04T17:18:23.389Z,988.11
2018-12-04T17:19:22.138Z,988.14
2018-12-04T17:20:21.801Z,988.18
2018-12-04T17:21:21.773Z,988.21
2018-12-04T17:22:21.766Z,988.22
2018-12-04T17:23:21.750Z,988.25
2018-12-04T17:24:21.742Z,988.31
2018-12-04T17:25:21.741Z,988.29
2018-12-04T17:26:21.717Z,988.35
2018-12-04T17:27:21.705Z,988.31
2018-12-04T17:28:21.694Z,988.33